Dundee Airport

Airport
ICAO code: 
EGPN
IATA Code: 
DND
Summary
ICAO Region: 
EUR
Territory: 
Location: 
, Scotland
Serving: 
Dundee
Elevation: 
17 ft
Coordinates: 
Aerial View: 
56° 27' 8.996" N, 3° 1' 32.999" W
Metar
Observation
EGPN 190720Z 30011KT 270V330 9999 SCT032 08/03 Q1016
Station
Dundee / Riverside
Date/Time
2022-01-19 07:20:00
Wind direction
300°
Wind speed
11 kts
Lowest cloud amount
scattered clouds
Temperature
8°C
Dew point
3°C
Humidity
70%
QNH
1016 hPa
Weather condition
n/a

Runways

Designator Length Width Surface Rops
10/28 1400 30 ASP Yes/Yes
Airport map: 
Aerial View: 

SKYbrary Partners:

Safety knowledge contributed by: